Time;durP1;ratioP1;P1;durP2;ratioP2;P2;SDS_P1;SDS_P2;PMS_P1;PMS_P2;Temp;Humidity;BMP_temperature;BMP_pressure;BME280_temperature;BME280_humidity;BME280_pressure;Samples;Min_cycle;Max_cycle;Signal;HPM_P1;HPM_P2
2021/04/01 00:00:45;;;;;;;;;76.50;58.40;;;;;11.00;100.00;100207.45;485632;112;379355;-58
2021/04/01 00:01:49;;;;;;;;;80.40;60.70;;;;;11.01;100.00;100210.91;491915;109;381017;-59
2021/04/01 00:02:54;;;;;;;;;75.40;58.80;;;;;11.00;100.00;100210.08;497505;109;380183;-61
2021/04/01 00:03:57;;;;;;;;;73.60;56.30;;;;;10.96;100.00;100208.69;497536;109;379583;-60
2021/04/01 00:05:01;;;;;;;;;78.80;59.20;;;;;10.95;100.00;100209.66;498468;109;372364;-61
2021/04/01 00:06:05;;;;;;;;;77.70;59.90;;;;;10.91;100.00;100205.64;497197;109;380911;-62
2021/04/01 00:07:09;;;;;;;;;77.80;60.40;;;;;10.91;100.00;100197.77;497966;109;372923;-62
2021/04/01 00:08:14;;;;;;;;;73.60;56.50;;;;;10.91;100.00;100203.84;498219;109;370582;-62
2021/04/01 00:09:18;;;;;;;;;76.40;59.80;;;;;10.89;100.00;100199.70;496949;109;380058;-63
2021/04/01 00:10:25;;;;;;;;;75.80;59.50;;;;;10.85;100.00;100201.75;492316;110;377764;-62
2021/04/01 00:11:29;;;;;;;;;69.91;53.00;;;;;10.88;100.00;100200.66;496470;109;378397;-61
2021/04/01 00:12:33;;;;;;;;;72.20;55.20;;;;;10.84;100.00;100196.64;497019;109;366940;-62
2021/04/01 00:13:37;;;;;;;;;72.70;56.70;;;;;10.88;100.00;100195.41;496302;109;379950;-61
2021/04/01 00:14:41;;;;;;;;;72.10;55.90;;;;;10.83;100.00;100200.23;496378;109;380149;-61
2021/04/01 00:15:45;;;;;;;;;74.20;56.90;;;;;10.81;100.00;100189.00;496241;109;379175;-62
2021/04/01 00:16:49;;;;;;;;;64.50;49.20;;;;;10.83;100.00;100193.19;491439;110;378757;-61
2021/04/01 00:17:53;;;;;;;;;76.60;58.40;;;;;10.81;100.00;100191.62;496475;109;371969;-63
2021/04/01 00:18:57;;;;;;;;;77.90;60.00;;;;;10.81;100.00;100187.24;496207;109;379429;-59
2021/04/01 00:20:01;;;;;;;;;72.10;55.00;;;;;10.78;100.00;100186.65;496468;109;378926;-61
2021/04/01 00:21:05;;;;;;;;;75.70;58.10;;;;;10.81;100.00;100186.38;497050;109;376377;-63
2021/04/01 00:22:09;;;;;;;;;73.40;56.90;;;;;10.81;100.00;100181.13;496355;109;381700;-62
2021/04/01 00:23:13;;;;;;;;;71.00;53.70;;;;;10.81;100.00;100181.13;496227;109;379856;-59
2021/04/01 00:24:17;;;;;;;;;77.20;58.90;;;;;10.76;100.00;100178.08;496360;109;378996;-59
2021/04/01 00:25:21;;;;;;;;;78.70;59.50;;;;;10.75;100.00;100182.50;492092;110;381790;-62
2021/04/01 00:26:25;;;;;;;;;77.10;59.00;;;;;10.78;100.00;100181.40;495984;109;371786;-60
2021/04/01 00:27:29;;;;;;;;;77.00;59.70;;;;;10.71;100.00;100175.02;496563;109;379687;-62
2021/04/01 00:28:33;;;;;;;;;79.70;60.50;;;;;10.73;100.00;100175.72;495576;109;383558;-59
2021/04/01 00:29:37;;;;;;;;;74.40;55.20;;;;;10.69;100.00;100177.78;496098;109;373465;-60
2021/04/01 00:30:43;;;;;;;;;73.10;56.60;;;;;10.68;100.00;100175.29;493335;110;371342;-61
2021/04/01 00:31:47;;;;;;;;;76.10;59.00;;;;;10.66;100.00;100172.80;496093;109;379081;-61
2021/04/01 00:32:50;;;;;;;;;75.90;59.90;;;;;10.64;100.00;100178.18;493811;109;382379;-60
2021/04/01 00:33:54;;;;;;;;;78.00;59.00;;;;;10.64;100.00;100178.18;495764;109;384305;-59
2021/04/01 00:34:58;;;;;;;;;78.20;55.30;;;;;10.62;100.00;100174.86;486214;110;382085;-60
2021/04/01 00:36:02;;;;;;;;;73.10;55.90;;;;;10.60;100.00;100173.30;490533;109;381281;-59
2021/04/01 00:37:06;;;;;;;;;76.30;57.10;;;;;10.57;100.00;100163.08;496343;109;379851;-60
2021/04/01 00:38:10;;;;;;;;;75.10;57.70;;;;;10.54;100.00;100168.59;496575;109;375121;-62
2021/04/01 00:39:14;;;;;;;;;76.90;57.20;;;;;10.54;100.00;100168.59;496155;109;382756;-61
2021/04/01 00:40:19;;;;;;;;;78.10;60.60;;;;;10.52;100.00;100158.23;495951;109;379914;-63
2021/04/01 00:41:22;;;;;;;;;74.50;59.00;;;;;10.53;100.00;100162.52;496212;109;381541;-62
2021/04/01 00:42:26;;;;;;;;;76.20;59.10;;;;;10.50;100.00;100154.08;496299;109;380573;-60
2021/04/01 00:43:30;;;;;;;;;73.10;56.00;;;;;10.48;100.00;100154.21;496164;109;380427;-62
2021/04/01 00:44:35;;;;;;;;;70.10;55.20;;;;;10.45;100.00;100154.48;496493;109;377857;-59
2021/04/01 00:45:39;;;;;;;;;78.80;60.30;;;;;10.45;100.00;100145.78;496223;109;381424;-61
2021/04/01 00:46:46;;;;;;;;;78.70;60.10;;;;;10.39;100.00;100141.86;493803;110;383579;-61
2021/04/01 00:47:50;;;;;;;;;81.60;60.70;;;;;10.40;100.00;100140.07;487233;110;383443;-60
2021/04/01 00:48:54;;;;;;;;;78.00;57.90;;;;;10.39;100.00;100146.28;492511;110;382793;-61
2021/04/01 00:49:58;;;;;;;;;76.10;60.00;;;;;10.39;100.00;100156.77;490855;110;380918;-62
2021/04/01 00:51:03;;;;;;;;;77.80;60.20;;;;;10.38;100.00;100152.48;491925;110;381360;-60
2021/04/01 00:52:08;;;;;;;;;74.90;57.70;;;;;10.36;100.00;100149.98;492205;110;384030;-61
2021/04/01 00:53:13;;;;;;;;;75.20;59.60;;;;;10.34;100.00;100149.30;492202;110;383331;-60
2021/04/01 00:54:17;;;;;;;;;71.60;56.90;;;;;10.35;100.00;100148.33;491367;110;381661;-62
2021/04/01 00:55:21;;;;;;;;;80.30;61.40;;;;;10.35;100.00;100141.30;491333;110;385596;-60
2021/04/01 00:56:25;;;;;;;;;79.50;60.20;;;;;10.31;100.00;100142.52;496071;109;380621;-60
2021/04/01 00:57:29;;;;;;;;;73.90;55.40;;;;;10.32;100.00;100144.18;496890;109;384855;-61
2021/04/01 00:58:33;;;;;;;;;78.10;59.70;;;;;10.31;100.00;100145.14;496057;109;371890;-61
2021/04/01 00:59:37;;;;;;;;;76.30;59.40;;;;;10.28;100.00;100145.41;495454;109;382874;-62
2021/04/01 01:00:43;;;;;;;;;76.90;59.70;;;;;10.25;100.00;100134.35;495783;109;373482;-61
2021/04/01 01:01:50;;;;;;;;;74.50;57.90;;;;;10.24;100.00;100140.55;494151;109;383820;-59
2021/04/01 01:02:53;;;;;;;;;73.90;57.00;;;;;10.26;100.00;100134.22;488488;110;383423;-61
2021/04/01 01:03:57;;;;;;;;;78.80;60.80;;;;;10.23;100.00;100139.72;495596;109;384232;-61
2021/04/01 01:05:01;;;;;;;;;76.10;59.80;;;;;10.22;100.00;100137.23;496516;109;371651;-62
2021/04/01 01:06:05;;;;;;;;;75.60;59.10;;;;;10.18;100.00;100138.39;496570;109;383253;-60
2021/04/01 01:07:09;;;;;;;;;48.10;36.60;;;;;10.15;100.00;100134.24;496451;109;381857;-58
2021/04/01 01:08:13;;;;;;;;;76.10;58.60;;;;;10.14;100.00;100129.13;496544;109;376653;-60
2021/04/01 01:09:17;;;;;;;;;78.00;60.70;;;;;10.13;100.00;100135.33;496669;109;383954;-61
2021/04/01 01:10:25;;;;;;;;;71.80;55.30;;;;;10.09;100.00;100131.31;472758;114;380772;-60
2021/04/01 01:11:29;;;;;;;;;81.70;62.60;;;;;10.00;100.00;100125.86;472994;114;385271;-58
2021/04/01 01:12:33;;;;;;;;;73.00;55.80;;;;;9.97;100.00;100131.36;475120;114;376573;-61
2021/04/01 01:13:37;;;;;;;;;74.36;58.55;;;;;9.92;100.00;100127.47;476623;114;383194;-60
2021/04/01 01:14:41;;;;;;;;;69.80;53.40;;;;;9.93;100.00;100124.72;476707;114;386855;-60
2021/04/01 01:15:45;;;;;;;;;71.30;56.20;;;;;9.88;100.00;100123.44;474246;114;381651;-60
2021/04/01 01:16:50;;;;;;;;;77.50;59.50;;;;;9.92;100.00;100128.30;474581;114;383440;-61
2021/04/01 01:17:54;;;;;;;;;76.50;57.90;;;;;9.93;100.00;100129.13;476704;114;385643;-59
2021/04/01 01:18:58;;;;;;;;;70.30;56.40;;;;;9.90;100.00;100122.36;477350;114;375622;-59
2021/04/01 01:20:02;;;;;;;;;79.80;60.70;;;;;9.88;100.00;100120.83;477311;114;377036;-60
2021/04/01 01:21:08;;;;;;;;;78.20;60.20;;;;;9.85;100.00;100116.67;476651;114;375677;-58
2021/04/01 01:22:12;;;;;;;;;77.40;59.80;;;;;9.82;100.00;100114.31;476930;112;376701;-59
2021/04/01 01:23:16;;;;;;;;;79.20;58.00;;;;;9.83;100.00;100113.35;476878;114;384923;-60
2021/04/01 01:24:20;;;;;;;;;76.50;59.90;;;;;9.82;100.00;100116.93;471929;114;385443;-62
2021/04/01 01:25:24;;;;;;;;;77.60;59.70;;;;;9.83;100.00;100113.35;477107;114;385430;-61
2021/04/01 01:26:28;;;;;;;;;83.40;63.20;;;;;9.85;100.00;100115.84;475384;114;377335;-59
2021/04/01 01:27:32;;;;;;;;;79.60;61.20;;;;;9.87;100.00;100114.75;474723;114;386625;-60
2021/04/01 01:28:36;;;;;;;;;76.70;60.60;;;;;9.87;100.00;100114.75;475255;114;385337;-59
2021/04/01 01:29:40;;;;;;;;;75.10;59.40;;;;;9.85;100.00;100113.22;467877;115;378859;-60
2021/04/01 01:30:44;;;;;;;;;70.90;56.70;;;;;9.88;100.00;100107.73;491021;110;384193;-58
2021/04/01 01:31:49;;;;;;;;;79.00;59.10;;;;;9.88;100.00;100107.73;490761;110;384909;-60
2021/04/01 01:32:57;;;;;;;;;76.40;58.40;;;;;9.88;100.00;100105.94;486708;111;375982;-62
2021/04/01 01:34:01;;;;;;;;;76.50;58.90;;;;;9.89;100.00;100104.98;490667;110;386564;-62
2021/04/01 01:35:09;;;;;;;;;79.30;60.50;;;;;9.86;100.00;100107.02;488176;111;375750;-60
2021/04/01 01:36:14;;;;;;;;;78.80;60.00;;;;;9.86;100.00;100101.79;489413;110;375481;-61
2021/04/01 01:37:17;;;;;;;;;78.70;60.50;;;;;9.89;100.00;100102.36;486327;110;383185;-61
2021/04/01 01:38:21;;;;;;;;;72.30;54.90;;;;;9.90;100.00;100101.40;488010;110;379411;-60
2021/04/01 01:39:26;;;;;;;;;77.90;59.80;;;;;9.90;100.00;100101.40;490698;110;373621;-61
2021/04/01 01:40:30;;;;;;;;;74.50;58.40;;;;;9.90;100.00;100101.40;490881;110;386062;-60
2021/04/01 01:41:34;;;;;;;;;75.40;57.90;;;;;9.95;100.00;100103.62;490831;110;384205;-59
2021/04/01 01:42:38;;;;;;;;;78.00;61.00;;;;;9.94;100.00;100099.34;491188;110;385136;-61
2021/04/01 01:43:42;;;;;;;;;77.90;59.80;;;;;9.98;100.00;100108.61;491752;110;385694;-61
2021/04/01 01:44:47;;;;;;;;;75.80;59.00;;;;;10.00;100.00;100104.07;490320;111;386070;-61
2021/04/01 01:45:52;;;;;;;;;77.30;60.80;;;;;10.02;100.00;100104.80;486957;111;385601;-60
2021/04/01 01:46:55;;;;;;;;;78.60;59.60;;;;;10.02;100.00;100104.80;491695;110;384668;-60
2021/04/01 01:48:00;;;;;;;;;78.90;61.10;;;;;10.04;100.00;100101.09;492020;110;376238;-65
2021/04/01 01:49:04;;;;;;;;;76.90;58.50;;;;;10.05;100.00;100107.98;490880;110;384277;-62
2021/04/01 01:50:11;;;;;;;;;79.40;60.00;;;;;10.06;100.00;100101.79;490986;110;384367;-60
2021/04/01 01:51:15;;;;;;;;;81.30;62.50;;;;;10.06;100.00;100101.79;490451;110;386832;-62
2021/04/01 01:52:19;;;;;;;;;75.00;57.00;;;;;10.06;100.00;100108.82;491945;110;380935;-63
2021/04/01 01:53:22;;;;;;;;;69.60;54.40;;;;;10.00;100.00;100102.28;491222;110;382282;-61
2021/04/01 01:54:26;;;;;;;;;71.40;56.40;;;;;10.01;100.00;100108.34;491708;110;369892;-59
2021/04/01 01:55:30;;;;;;;;;72.80;57.50;;;;;10.02;100.00;100094.32;489330;110;386292;-61
2021/04/01 01:56:34;;;;;;;;;73.70;57.80;;;;;10.01;100.00;100096.11;490709;110;382993;-59
2021/04/01 01:57:38;;;;;;;;;75.80;58.60;;;;;9.97;100.00;100093.85;491135;110;384212;-62
2021/04/01 01:58:42;;;;;;;;;79.20;60.00;;;;;9.98;100.00;100096.34;490973;110;375899;-60
2021/04/01 01:59:46;;;;;;;;;76.50;58.70;;;;;9.98;100.00;100091.10;492097;110;374044;-62
2021/04/01 02:00:53;;;;;;;;;75.80;58.80;;;;;9.98;100.00;100091.10;486948;111;376117;-62
2021/04/01 02:01:57;;;;;;;;;70.00;53.40;;;;;9.98;100.00;100093.72;490488;110;384699;-60
2021/04/01 02:03:02;;;;;;;;;77.00;60.30;;;;;9.98;100.00;100095.52;490925;110;382204;-61
2021/04/01 02:04:07;;;;;;;;;78.30;60.80;;;;;9.90;100.00;100085.69;490923;110;383769;-60
2021/04/01 02:05:12;;;;;;;;;80.60;61.20;;;;;9.90;100.00;100096.16;490851;110;384128;-59
2021/04/01 02:06:19;;;;;;;;;72.30;57.00;;;;;9.87;100.00;100083.33;488458;111;384463;-59
2021/04/01 02:07:25;;;;;;;;;76.70;59.30;;;;;9.91;100.00;100089.13;488581;110;382219;-61
2021/04/01 02:08:28;;;;;;;;;79.50;59.70;;;;;9.87;100.00;100092.97;491350;110;373566;-61
2021/04/01 02:09:32;;;;;;;;;79.10;61.40;;;;;9.86;100.00;100088.69;491097;110;381724;-59
2021/04/01 02:10:39;;;;;;;;;77.80;60.20;;;;;9.82;100.00;100085.50;493971;109;382530;-62
2021/04/01 02:11:43;;;;;;;;;80.70;61.80;;;;;9.85;100.00;100087.86;496108;109;386636;-61
2021/04/01 02:12:47;;;;;;;;;82.60;63.50;;;;;9.88;100.00;100086.77;496425;109;387121;-61
2021/04/01 02:13:51;;;;;;;;;75.60;59.00;;;;;9.86;100.00;100086.91;492316;110;379909;-61
2021/04/01 02:14:55;;;;;;;;;73.10;54.20;;;;;9.80;100.00;100090.01;496957;109;385587;-62
2021/04/01 02:15:59;;;;;;;;;78.20;60.80;;;;;9.80;100.00;100090.01;495564;109;382070;-60
2021/04/01 02:17:04;;;;;;;;;78.20;60.90;;;;;9.80;100.00;100081.32;485825;112;381446;-60
2021/04/01 02:18:10;;;;;;;;;72.90;55.40;;;;;9.82;100.00;100088.13;489218;110;375871;-60
2021/04/01 02:19:14;;;;;;;;;78.90;61.10;;;;;9.83;100.00;100084.54;496029;109;382996;-61
2021/04/01 02:20:18;;;;;;;;;79.80;62.70;;;;;9.87;100.00;100085.11;496033;109;384786;-62
2021/04/01 02:21:23;;;;;;;;;76.80;60.50;;;;;9.82;100.00;100089.91;491956;110;382016;-62
2021/04/01 02:22:28;;;;;;;;;70.40;54.30;;;;;9.81;100.00;100078.60;495894;109;382058;-60
2021/04/01 02:23:32;;;;;;;;;73.90;57.60;;;;;9.82;100.00;100082.88;496375;109;383420;-62
2021/04/01 02:24:36;;;;;;;;;76.60;58.00;;;;;9.87;100.00;100085.11;496239;109;382017;-62
2021/04/01 02:25:41;;;;;;;;;81.10;60.70;;;;;9.92;100.00;100089.00;496443;109;380551;-61
2021/04/01 02:26:45;;;;;;;;;77.30;57.90;;;;;9.94;100.00;100084.46;496106;109;382369;-62
2021/04/01 02:27:49;;;;;;;;;79.90;61.30;;;;;9.93;100.00;100082.80;496753;109;376641;-62
2021/04/01 02:28:53;;;;;;;;;65.90;49.70;;;;;9.89;100.00;100083.20;496999;109;381975;-61
2021/04/01 02:29:56;;;;;;;;;77.20;59.70;;;;;9.94;100.00;100086.25;497003;109;376137;-60
2021/04/01 02:31:01;;;;;;;;;74.10;56.70;;;;;9.94;100.00;100083.63;496594;109;381608;-62
2021/04/01 02:32:07;;;;;;;;;75.40;58.20;;;;;9.88;100.00;100082.36;496379;109;380710;-63
2021/04/01 02:33:12;;;;;;;;;73.40;55.10;;;;;9.92;100.00;100086.38;496374;109;382468;-61
2021/04/01 02:34:16;;;;;;;;;71.30;56.00;;;;;9.99;100.00;100082.28;496655;109;380725;-62
2021/04/01 02:35:20;;;;;;;;;76.40;58.70;;;;;10.00;100.00;100073.46;491762;109;382286;-62
2021/04/01 02:36:24;;;;;;;;;68.70;55.20;;;;;9.98;100.00;100075.38;496758;109;382156;-63
2021/04/01 02:37:29;;;;;;;;;76.30;56.70;;;;;10.01;100.00;100075.16;496602;109;382918;-61
2021/04/01 02:38:33;;;;;;;;;76.30;59.60;;;;;10.03;100.00;100075.02;493741;109;379973;-61
2021/04/01 02:39:37;;;;;;;;;66.70;53.00;;;;;10.05;100.00;100073.09;495906;109;375609;-60
2021/04/01 02:40:42;;;;;;;;;78.80;59.70;;;;;10.03;100.00;100073.23;493325;109;382839;-63
2021/04/01 02:41:47;;;;;;;;;72.50;56.80;;;;;10.06;100.00;100072.14;494660;109;381611;-60
2021/04/01 02:42:51;;;;;;;;;78.80;60.60;;;;;10.05;100.00;100071.31;492164;109;378695;-61
2021/04/01 02:43:55;;;;;;;;;74.20;58.70;;;;;10.03;100.00;100064.54;496034;109;382940;-60
2021/04/01 02:44:59;;;;;;;;;77.70;59.00;;;;;10.04;100.00;100072.27;494970;109;380921;-62
2021/04/01 02:46:04;;;;;;;;;77.50;59.20;;;;;10.05;100.00;100068.69;496180;109;384201;-62
2021/04/01 02:47:08;;;;;;;;;82.60;62.00;;;;;10.08;100.00;100072.84;496336;109;383161;-62
2021/04/01 02:48:12;;;;;;;;;76.60;59.80;;;;;10.03;100.00;100075.84;495881;109;382630;-62
2021/04/01 02:49:16;;;;;;;;;81.90;62.10;;;;;9.99;100.00;100069.18;496771;109;385404;-60
2021/04/01 02:50:21;;;;;;;;;75.70;58.50;;;;;10.01;100.00;100069.91;491984;110;384790;-59
2021/04/01 02:51:25;;;;;;;;;74.30;57.80;;;;;10.02;100.00;100066.33;496278;109;385594;-61
2021/04/01 02:52:29;;;;;;;;;76.90;60.40;;;;;10.08;100.00;100072.84;496467;109;383852;-61
2021/04/01 02:53:33;;;;;;;;;82.10;63.90;;;;;10.06;100.00;100072.97;496977;109;387326;-61
2021/04/01 02:54:37;;;;;;;;;82.90;66.10;;;;;10.05;100.00;100070.48;496349;109;386199;-61
2021/04/01 02:55:41;;;;;;;;;80.30;61.10;;;;;10.03;100.00;100075.84;496237;109;385513;-62
2021/04/01 02:56:46;;;;;;;;;78.20;61.00;;;;;10.07;100.00;100073.80;495962;109;377203;-61
2021/04/01 02:57:50;;;;;;;;;78.00;60.70;;;;;10.03;100.00;100075.84;493777;109;384888;-61
2021/04/01 02:58:54;;;;;;;;;75.00;58.20;;;;;10.02;100.00;100074.19;497017;109;379024;-61
2021/04/01 03:00:00;;;;;;;;;76.40;58.90;;;;;10.02;100.00;100071.57;496537;109;386844;-60
2021/04/01 03:01:04;;;;;;;;;78.80;62.00;;;;;10.09;100.00;100071.05;494020;109;376745;-61
2021/04/01 03:02:09;;;;;;;;;73.60;57.70;;;;;10.07;100.00;100071.17;496737;109;383709;-60
2021/04/01 03:03:17;;;;;;;;;76.70;57.90;;;;;10.10;100.00;100067.47;496467;109;382541;-60
2021/04/01 03:04:19;;;;;;;;;71.30;54.30;;;;;10.09;100.00;100064.02;491958;109;381008;-62
2021/04/01 03:05:24;;;;;;;;;77.60;59.10;;;;;10.05;100.00;100062.62;491572;109;380643;-62
2021/04/01 03:06:29;;;;;;;;;77.80;58.60;;;;;9.99;100.00;100066.56;496778;109;380413;-61
2021/04/01 03:07:33;;;;;;;;;77.20;59.00;;;;;9.98;100.00;100064.91;495781;109;379789;-64
2021/04/01 03:08:39;;;;;;;;;71.90;56.80;;;;;9.98;100.00;100054.42;483190;112;379519;-59
2021/04/01 03:09:43;;;;;;;;;73.60;58.40;;;;;10.09;100.00;100061.39;494522;110;377229;-59
2021/04/01 03:10:47;;;;;;;;;78.80;59.70;;;;;10.06;100.00;100059.87;494126;110;377168;-62
2021/04/01 03:11:51;;;;;;;;;81.90;61.80;;;;;10.02;100.00;100052.41;486887;110;382627;-60
2021/04/01 03:12:55;;;;;;;;;73.30;54.50;;;;;10.08;100.00;100053.67;491519;110;384921;-60
2021/04/01 03:13:59;;;;;;;;;76.10;59.40;;;;;10.05;100.00;100060.83;494186;110;374439;-60
2021/04/01 03:15:06;;;;;;;;;71.90;55.40;;;;;10.09;100.00;100058.77;493945;110;380375;-61
2021/04/01 03:16:10;;;;;;;;;76.80;57.30;;;;;10.03;100.00;100057.51;494755;110;382071;-61
2021/04/01 03:17:14;;;;;;;;;77.20;57.40;;;;;9.96;100.00;100056.34;494227;110;378938;-61
2021/04/01 03:18:18;;;;;;;;;74.20;56.90;;;;;10.05;100.00;100066.06;493045;110;380299;-63
2021/04/01 03:19:22;;;;;;;;;79.80;58.60;;;;;9.99;100.00;100052.63;490233;110;383597;-60
2021/04/01 03:20:28;;;;;;;;;70.60;56.20;;;;;10.02;100.00;100053.23;489139;110;376787;-61
2021/04/01 03:21:32;;;;;;;;;75.00;58.00;;;;;10.00;100.00;100057.74;492786;110;380994;-60
2021/04/01 03:22:36;;;;;;;;;76.73;60.00;;;;;9.99;100.00;100055.25;492411;110;380891;-62
2021/04/01 03:23:39;;;;;;;;;74.40;56.20;;;;;9.91;100.00;100058.53;480886;112;382829;-62
2021/04/01 03:24:44;;;;;;;;;66.00;53.50;;;;;9.91;100.00;100058.53;492809;110;381111;-62
2021/04/01 03:25:48;;;;;;;;;71.20;54.20;;;;;9.95;100.00;100052.06;483794;112;383844;-60
2021/04/01 03:26:52;;;;;;;;;73.70;56.80;;;;;9.97;100.00;100055.38;489374;110;383762;-60
2021/04/01 03:27:56;;;;;;;;;79.20;60.10;;;;;9.85;100.00;100032.86;493488;110;383342;-62
2021/04/01 03:29:00;;;;;;;;;69.30;54.20;;;;;10.00;100.00;100055.13;492328;110;377721;-61
2021/04/01 03:30:08;;;;;;;;;72.40;57.40;;;;;9.94;100.00;100053.03;492300;110;382528;-58
2021/04/01 03:31:12;;;;;;;;;75.30;58.10;;;;;9.94;100.00;100053.03;492595;110;381929;-61
2021/04/01 03:32:16;;;;;;;;;77.10;58.40;;;;;9.95;100.00;100057.30;493480;110;381861;-60
2021/04/01 03:33:20;;;;;;;;;70.40;55.10;;;;;9.95;100.00;100056.48;488742;110;380204;-62
2021/04/01 03:34:24;;;;;;;;;78.40;60.70;;;;;9.94;100.00;100050.41;492166;110;383663;-61
2021/04/01 03:35:28;;;;;;;;;79.80;59.50;;;;;9.90;100.00;100054.25;493409;110;382128;-61
2021/04/01 03:36:32;;;;;;;;;76.10;58.00;;;;;9.90;100.00;100050.80;492512;110;383647;-59
2021/04/01 03:37:36;;;;;;;;;73.50;57.40;;;;;9.89;100.00;100052.59;493549;110;382985;-60
2021/04/01 03:38:41;;;;;;;;;77.30;59.20;;;;;9.92;100.00;100052.33;492955;110;385106;-61
2021/04/01 03:39:46;;;;;;;;;76.60;58.60;;;;;9.92;100.00;100052.33;491912;110;382720;-61
2021/04/01 03:40:53;;;;;;;;;76.50;58.30;;;;;9.86;100.00;100052.85;488589;110;384245;-61
2021/04/01 03:41:56;;;;;;;;;73.60;56.30;;;;;9.83;100.00;100049.66;490133;110;374391;-62
2021/04/01 03:43:00;;;;;;;;;79.20;60.90;;;;;9.82;100.00;100051.45;493118;110;384298;-62
2021/04/01 03:44:04;;;;;;;;;75.70;58.00;;;;;9.85;100.00;100047.75;493277;110;375858;-61
2021/04/01 03:45:11;;;;;;;;;80.60;62.40;;;;;9.82;100.00;100050.63;493214;110;382833;-62
2021/04/01 03:46:17;;;;;;;;;75.90;59.60;;;;;9.77;100.00;100053.60;475636;114;383934;-62
2021/04/01 03:47:21;;;;;;;;;74.60;56.00;;;;;9.77;100.00;100053.60;472493;114;383808;-59
2021/04/01 03:48:25;;;;;;;;;78.70;60.80;;;;;9.78;100.00;100046.58;476125;114;385538;-61
2021/04/01 03:49:29;;;;;;;;;83.70;61.80;;;;;9.74;100.00;100048.62;476312;114;386573;-61
2021/04/01 03:50:35;;;;;;;;;75.90;57.00;;;;;9.76;100.00;100052.77;473541;114;374083;-62
2021/04/01 03:51:39;;;;;;;;;83.30;62.00;;;;;9.65;100.00;100021.42;476426;114;381552;-59
2021/04/01 03:52:44;;;;;;;;;81.40;62.20;;;;;9.74;100.00;100049.45;476000;114;386456;-62
2021/04/01 03:53:49;;;;;;;;;77.10;58.20;;;;;9.75;100.00;100042.42;476553;114;387384;-63
2021/04/01 03:54:56;;;;;;;;;82.30;64.50;;;;;9.72;100.00;100047.92;474260;114;388300;-61
2021/04/01 03:55:58;;;;;;;;;81.00;61.70;;;;;9.74;100.00;100046.83;472174;114;388627;-61
2021/04/01 03:57:04;;;;;;;;;79.70;63.00;;;;;9.73;100.00;100034.70;476164;114;380914;-61
2021/04/01 03:58:35;;;;;;;;;83.20;65.40;;;;;9.68;100.00;100039.50;475786;114;387166;-60
2021/04/01 03:59:39;;;;;;;;;78.20;60.20;;;;;9.68;100.00;100039.50;471283;114;388144;-59
2021/04/01 04:00:45;;;;;;;;;82.00;63.70;;;;;9.63;100.00;100036.44;457220;119;379806;-61
2021/04/01 04:03:32;;;;;;;;;79.50;63.40;;;;;9.69;100.00;100035.92;457063;119;384329;-65
2021/04/01 04:04:41;;;;;;;;;86.30;68.60;;;;;9.62;100.00;100041.80;454330;119;391208;-64
2021/04/01 04:05:52;;;;;;;;;79.00;58.60;;;;;9.61;100.00;100033.12;473841;114;386471;-60
2021/04/01 04:07:12;;;;;;;;;78.10;59.60;;;;;9.67;100.00;100037.01;470254;114;383583;-60
2021/04/01 04:08:31;;;;;;;;;84.20;65.60;;;;;9.67;100.00;100031.77;477404;112;385602;-60
2021/04/01 04:09:39;;;;;;;;;88.10;69.20;;;;;9.64;100.00;100032.86;473414;114;387144;-61
2021/04/01 04:12:15;;;;;;;;;86.30;67.70;;;;;9.61;100.00;100037.50;473549;114;389801;-61
2021/04/01 04:13:22;;;;;;;;;83.80;64.40;;;;;9.68;100.00;100028.20;472772;114;387114;-62
2021/04/01 04:14:29;;;;;;;;;84.80;69.30;;;;;9.68;100.00;100030.81;475370;114;390536;-61
2021/04/01 04:15:30;;;;;;;;;83.30;63.30;;;;;9.63;100.00;100031.20;470313;115;388975;-63
2021/04/01 04:16:36;;;;;;;;;82.50;63.90;;;;;9.61;100.00;100027.02;455102;119;383592;-62
2021/04/01 04:17:40;;;;;;;;;85.70;65.50;;;;;9.66;100.00;100020.47;458345;118;389603;-61
2021/04/01 04:18:44;;;;;;;;;83.80;66.10;;;;;9.62;100.00;100024.30;460437;118;390232;-61
2021/04/01 04:19:48;;;;;;;;;84.10;66.60;;;;;9.69;100.00;100016.76;466635;115;391151;-62
2021/04/01 04:20:52;;;;;;;;;75.80;58.70;;;;;9.74;100.00;100022.44;476517;114;387090;-60
2021/04/01 04:21:57;;;;;;;;;81.30;64.30;;;;;9.69;100.00;100017.59;466353;116;386826;-59
2021/04/01 04:23:01;;;;;;;;;82.50;61.70;;;;;9.70;100.00;100024.48;469679;115;388568;-62
2021/04/01 04:24:08;;;;;;;;;80.50;63.40;;;;;9.61;100.00;100019.17;476057;114;387159;-62
2021/04/01 04:25:15;;;;;;;;;81.30;61.60;;;;;9.58;100.00;100019.42;460947;117;386175;-62
2021/04/01 04:26:21;;;;;;;;;81.60;62.80;;;;;9.55;100.00;100017.07;455496;119;389386;-62
2021/04/01 04:27:44;;;;;;;;;81.30;64.30;;;;;9.52;100.00;100018.16;461107;116;384134;-60
2021/04/01 04:28:44;;;;;;;;;81.00;62.90;;;;;9.56;100.00;100009.08;463077;117;388937;-62
2021/04/01 04:29:59;;;;;;;;;83.40;63.70;;;;;9.59;100.00;100011.44;459526;117;388744;-61
2021/04/01 04:30:54;;;;;;;;;79.60;61.00;;;;;9.56;100.00;100011.70;455903;118;388670;-60
2021/04/01 04:31:58;;;;;;;;;84.90;67.10;;;;;9.63;100.00;100014.66;463918;116;389787;-62
2021/04/01 04:33:02;;;;;;;;;80.20;60.20;;;;;9.57;100.00;100018.59;462186;117;388671;-61
2021/04/01 04:34:06;;;;;;;;;85.20;67.00;;;;;9.54;100.00;100015.41;459823;117;391219;-60
2021/04/01 04:35:11;;;;;;;;;86.10;65.70;;;;;9.57;100.00;100018.59;458128;119;390200;-62
2021/04/01 04:36:15;;;;;;;;;85.20;64.80;;;;;9.55;100.00;100014.45;456496;119;389186;-61
2021/04/01 04:37:19;;;;;;;;;89.00;71.70;;;;;9.54;100.00;100008.38;458291;118;392162;-62
2021/04/01 04:38:23;;;;;;;;;76.80;61.80;;;;;9.59;100.00;100008.83;454567;118;380343;-61
2021/04/01 04:39:28;;;;;;;;;82.80;63.20;;;;;9.59;100.00;100014.06;458750;119;389842;-61
2021/04/01 04:40:33;;;;;;;;;82.20;63.80;;;;;9.64;100.00;100006.67;460106;117;388834;-61
2021/04/01 04:41:37;;;;;;;;;75.60;58.80;;;;;9.62;100.00;100010.38;461183;117;386913;-61
2021/04/01 04:42:42;;;;;;;;;68.90;52.10;;;;;9.74;100.00;100011.96;478660;113;387202;-62
2021/04/01 04:43:46;;;;;;;;;89.20;72.20;;;;;9.68;100.00;100002.84;479526;113;387464;-61
2021/04/01 04:44:50;;;;;;;;;81.50;61.90;;;;;9.60;100.00;99988.71;487184;110;378400;-62
2021/04/01 04:45:54;;;;;;;;;83.70;65.80;;;;;9.69;100.00;100001.88;491137;110;390869;-62
2021/04/01 04:46:58;;;;;;;;;89.60;74.80;;;;;9.74;100.00;100001.48;490274;110;391844;-62
2021/04/01 04:48:01;;;;;;;;;85.20;69.40;;;;;9.82;100.00;100009.55;490635;110;390746;-62
2021/04/01 04:49:05;;;;;;;;;84.90;69.50;;;;;9.85;100.00;100003.22;491886;110;386469;-61
2021/04/01 04:50:12;;;;;;;;;82.80;64.40;;;;;9.85;100.00;100001.42;489864;110;390180;-62
2021/04/01 04:51:16;;;;;;;;;82.30;65.30;;;;;9.90;100.00;100001.86;490741;110;380195;-61
2021/04/01 04:52:21;;;;;;;;;83.60;62.80;;;;;9.87;100.00;100002.13;487090;111;387692;-65
2021/04/01 04:53:25;;;;;;;;;71.00;55.90;;;;;9.87;100.00;100002.13;490930;110;385542;-62